» Metar & Tafor

20 Juli 2019
METAR
Pukul : 10.00 UTC
Isi :

METAR WAGI 241000Z 14005KT 8000 BKN011 27/23 Q1009 NOSIG=


10 Juni 2019
TAFOR
Pukul : 06- 18 UTC
Isi :

TAF WAGI 240500Z 2406/2418 13005KT 8000 BKN011 TEMPO 2407/2410 4000 -RA FEW011CB BKN011=


Hal: << First | < Prev | 1 | Next > | Last >>